Time;durP1;ratioP1;P1;durP2;ratioP2;P2;SDS_P1;SDS_P2;PMS_P1;PMS_P2;Temp;Humidity;BMP_temperature;BMP_pressure;BME280_temperature;BME280_humidity;BME280_pressure;Samples;Min_cycle;Max_cycle;Signal;HPM_P1;HPM_P2
2021/12/06 00:01:35;;;;;;;12.98;7.55;;;2.30;99.90;;;;;;5042747;28;20448;-82
2021/12/06 00:04:10;;;;;;;10.15;7.43;;;2.40;99.90;;;;;;5043558;28;20201;-81
2021/12/06 00:06:39;;;;;;;9.77;5.82;;;2.40;99.90;;;;;;5045858;28;20545;-82
2021/12/06 00:09:08;;;;;;;9.15;6.63;;;2.50;99.90;;;;;;5029942;28;20185;-82
2021/12/06 00:11:34;;;;;;;15.65;8.02;;;2.50;99.90;;;;;;5045885;28;20177;-83
2021/12/06 00:14:02;;;;;;;11.73;7.70;;;2.50;99.90;;;;;;5030616;28;20697;-82
2021/12/06 00:16:28;;;;;;;5.10;4.57;;;2.50;99.90;;;;;;5031934;28;20511;-83
2021/12/06 00:18:55;;;;;;;7.82;4.60;;;2.40;99.90;;;;;;5029604;28;20201;-85
2021/12/06 00:21:22;;;;;;;4.70;3.78;;;2.60;99.90;;;;;;5027564;28;20552;-82
2021/12/06 00:23:49;;;;;;;3.63;2.78;;;2.60;99.90;;;;;;5038283;28;20201;-83
2021/12/06 00:26:15;;;;;;;3.40;2.25;;;2.70;99.90;;;;;;5030606;28;20264;-83
2021/12/06 00:28:43;;;;;;;5.18;2.53;;;2.60;99.90;;;;;;5033591;28;20180;-82
2021/12/06 00:31:10;;;;;;;5.18;3.53;;;2.60;99.90;;;;;;5037151;28;20173;-82
2021/12/06 00:33:37;;;;;;;3.47;2.13;;;2.60;99.90;;;;;;5036421;28;20221;-85
2021/12/06 00:36:07;;;;;;;4.03;2.15;;;2.50;99.90;;;;;;5029522;28;20177;-83
2021/12/06 00:38:34;;;;;;;5.22;3.22;;;2.40;99.90;;;;;;5041076;28;20173;-84
2021/12/06 00:41:03;;;;;;;2.88;2.63;;;2.30;99.90;;;;;;5043355;28;20176;-82
2021/12/06 00:43:29;;;;;;;2.08;1.73;;;2.20;99.90;;;;;;5041319;28;20204;-82
2021/12/06 00:45:55;;;;;;;2.30;1.83;;;2.10;99.90;;;;;;5041431;28;20181;-84
2021/12/06 00:48:21;;;;;;;3.80;2.40;;;2.00;99.90;;;;;;5024889;28;20204;-84
2021/12/06 00:50:46;;;;;;;5.70;2.77;;;1.80;99.90;;;;;;5038117;28;20189;-83
2021/12/06 00:53:12;;;;;;;5.90;4.30;;;1.70;99.90;;;;;;5038270;28;20270;-82
2021/12/06 00:55:38;;;;;;;4.90;3.30;;;1.60;99.90;;;;;;5029686;28;20308;-83
2021/12/06 00:58:04;;;;;;;5.50;3.70;;;1.80;99.90;;;;;;5040014;28;20451;-85
2021/12/06 01:00:41;;;;;;;9.50;5.43;;;1.80;99.90;;;;;;5025430;28;20281;-83
2021/12/06 01:03:10;;;;;;;7.80;5.00;;;1.80;99.90;;;;;;5021981;28;20750;-83
2021/12/06 01:05:36;;;;;;;8.07;5.57;;;1.80;99.90;;;;;;5037787;28;20184;-82
2021/12/06 01:08:03;;;;;;;4.63;3.10;;;1.70;99.90;;;;;;5026974;28;20177;-83
2021/12/06 01:10:29;;;;;;;4.63;3.42;;;1.50;99.90;;;;;;5022724;28;20158;-81
2021/12/06 01:12:55;;;;;;;4.23;3.40;;;1.40;99.90;;;;;;5025555;28;20288;-83
2021/12/06 01:15:21;;;;;;;2.90;2.60;;;1.30;99.90;;;;;;5019745;28;20435;-81
2021/12/06 01:17:47;;;;;;;3.37;2.00;;;1.30;99.90;;;;;;5036688;28;20232;-82
2021/12/06 01:20:18;;;;;;;4.72;2.63;;;1.30;99.90;;;;;;5028042;28;20188;-85
2021/12/06 01:22:52;;;;;;;9.90;3.97;;;1.10;99.90;;;;;;5025810;28;20193;-83
2021/12/06 01:25:32;;;;;;;5.13;4.18;;;1.10;99.90;;;;;;5040103;28;20636;-83
2021/12/06 01:41:32;;;;;;;5.18;3.83;;;1.50;99.90;;;;;;5049246;23;20572;-82
2021/12/06 01:44:26;;;;;;;5.70;3.40;;;1.60;99.90;;;;;;5029159;28;20178;-82
2021/12/06 01:46:57;;;;;;;4.05;2.63;;;1.70;99.90;;;;;;5029024;28;20284;-82
2021/12/06 01:49:26;;;;;;;3.72;3.33;;;1.70;99.90;;;;;;5011970;28;20946;-82
2021/12/06 01:51:55;;;;;;;5.35;3.90;;;1.70;99.90;;;;;;5020489;28;20221;-82
2021/12/06 01:54:21;;;;;;;4.70;3.10;;;1.70;99.90;;;;;;5051850;28;20185;-82
2021/12/06 01:56:49;;;;;;;4.75;3.38;;;1.70;99.90;;;;;;5051618;28;21091;-81
2021/12/06 01:59:16;;;;;;;5.75;3.42;;;1.70;99.90;;;;;;5026142;28;20263;-82
2021/12/06 02:01:42;;;;;;;10.45;3.47;;;1.70;99.90;;;;;;5022037;28;20679;-81
2021/12/06 02:04:08;;;;;;;6.47;3.05;;;1.70;99.90;;;;;;5042848;28;20185;-81
2021/12/06 02:06:35;;;;;;;3.30;2.78;;;1.60;99.90;;;;;;5048133;28;21411;-82
2021/12/06 02:09:03;;;;;;;4.22;3.83;;;1.40;99.90;;;;;;5033274;28;20185;-82
2021/12/06 02:11:32;;;;;;;5.93;4.07;;;1.40;99.90;;;;;;5047612;28;20243;-82
2021/12/06 02:14:17;;;;;;;7.03;4.82;;;1.50;99.90;;;;;;5039930;28;20193;-82
2021/12/06 02:16:58;;;;;;;6.75;3.63;;;1.50;99.90;;;;;;5032318;28;20311;-82
2021/12/06 02:19:30;;;;;;;5.47;3.72;;;1.50;99.90;;;;;;5049664;28;20174;-82
2021/12/06 02:21:57;;;;;;;6.35;3.88;;;1.50;99.90;;;;;;5054793;28;20201;-82
2021/12/06 02:24:23;;;;;;;8.60;3.75;;;1.40;99.90;;;;;;5036902;28;20859;-82
2021/12/06 02:26:51;;;;;;;5.97;4.27;;;1.40;99.90;;;;;;5053276;28;20306;-82
2021/12/06 02:29:17;;;;;;;16.00;5.78;;;1.50;99.90;;;;;;5053284;28;20262;-82
2021/12/06 02:31:43;;;;;;;14.43;6.50;;;1.60;99.90;;;;;;5051176;28;20212;-81
2021/12/06 02:34:08;;;;;;;6.83;5.70;;;1.80;99.90;;;;;;5053496;28;20439;-81
2021/12/06 02:36:34;;;;;;;8.90;5.70;;;1.80;99.90;;;;;;5051941;28;20965;-82
2021/12/06 02:39:02;;;;;;;11.23;6.43;;;1.90;99.90;;;;;;5052616;28;20478;-82
2021/12/06 02:41:28;;;;;;;13.32;6.55;;;1.90;99.90;;;;;;5050574;28;20250;-82
2021/12/06 02:43:54;;;;;;;11.33;8.20;;;;;;;;;;5053010;28;20189;-82
2021/12/06 02:46:22;;;;;;;11.30;7.95;;;1.70;99.90;;;;;;5049341;28;20431;-81
2021/12/06 02:48:48;;;;;;;15.93;9.45;;;1.70;99.90;;;;;;5036307;28;20253;-81
2021/12/06 02:51:14;;;;;;;7.55;5.72;;;1.80;99.90;;;;;;5028375;28;20295;-82
2021/12/06 02:53:40;;;;;;;11.52;5.47;;;1.90;99.90;;;;;;5033376;28;20208;-81
2021/12/06 02:56:18;;;;;;;6.53;5.28;;;1.70;99.90;;;;;;5053326;28;20680;-82
2021/12/06 02:58:56;;;;;;;8.05;4.93;;;1.80;99.90;;;;;;5033511;28;20169;-80
2021/12/06 03:01:30;;;;;;;6.90;4.35;;;1.50;99.90;;;;;;5053482;28;20207;-82
2021/12/06 03:03:56;;;;;;;13.48;5.68;;;1.50;99.90;;;;;;5038185;28;20183;-81
2021/12/06 03:06:23;;;;;;;7.30;5.40;;;1.50;99.90;;;;;;5034757;28;20188;-81
2021/12/06 03:08:55;;;;;;;9.13;5.95;;;1.60;99.90;;;;;;5040564;28;20189;-81
2021/12/06 03:12:01;;;;;;;16.77;11.32;;;1.60;99.90;;;;;;5052314;28;20501;-82
2021/12/06 03:14:31;;;;;;;21.13;12.57;;;1.80;99.90;;;;;;4955774;28;20186;-81
2021/12/06 03:16:59;;;;;;;24.15;14.70;;;1.80;99.90;;;;;;4969791;28;20186;-82
2021/12/06 03:19:25;;;;;;;28.70;12.10;;;1.90;99.90;;;;;;5009590;28;20248;-81
2021/12/06 03:21:51;;;;;;;15.20;10.20;;;1.70;99.90;;;;;;5054358;28;20251;-81
2021/12/06 03:24:17;;;;;;;11.05;7.82;;;1.60;99.90;;;;;;5051823;28;20542;-81
2021/12/06 03:26:43;;;;;;;10.53;7.70;;;1.70;99.90;;;;;;5035001;28;20284;-81
2021/12/06 03:29:09;;;;;;;12.23;7.35;;;1.70;99.90;;;;;;5051985;28;20189;-81
2021/12/06 03:31:36;;;;;;;17.97;8.23;;;1.70;99.90;;;;;;5048870;28;20288;-82
2021/12/06 03:34:04;;;;;;;13.07;7.85;;;1.70;99.90;;;;;;5032840;28;20487;-80
2021/12/06 03:36:35;;;;;;;16.40;9.45;;;1.90;99.90;;;;;;5025274;28;20172;-81
2021/12/06 03:39:05;;;;;;;10.45;7.75;;;2.30;99.90;;;;;;5049811;28;20190;-80
2021/12/06 03:41:30;;;;;;;14.32;7.93;;;2.00;99.90;;;;;;5050216;28;20232;-81
2021/12/06 03:43:58;;;;;;;15.97;8.90;;;2.00;99.90;;;;;;5050413;28;20719;-83
2021/12/06 03:46:25;;;;;;;13.68;8.13;;;2.10;99.90;;;;;;5050423;28;20279;-80
2021/12/06 03:48:51;;;;;;;13.07;7.53;;;2.10;99.90;;;;;;5044813;28;20668;-82
2021/12/06 03:51:16;;;;;;;11.60;7.67;;;2.20;99.90;;;;;;5048273;28;20228;-81
2021/12/06 03:53:42;;;;;;;17.00;8.17;;;2.10;99.90;;;;;;5050917;28;20481;-80
2021/12/06 03:56:08;;;;;;;12.03;8.07;;;2.20;99.90;;;;;;5049054;28;20234;-80
2021/12/06 03:58:35;;;;;;;12.53;7.20;;;2.20;99.90;;;;;;5031198;28;20258;-80
2021/12/06 04:01:03;;;;;;;11.30;7.60;;;2.20;99.90;;;;;;5029988;28;20197;-81
2021/12/06 04:03:30;;;;;;;10.68;7.65;;;2.20;99.90;;;;;;5033674;28;20646;-80
2021/12/06 04:05:56;;;;;;;13.05;7.93;;;2.20;99.90;;;;;;5049651;28;20241;-83
2021/12/06 04:08:23;;;;;;;13.38;8.52;;;2.30;99.90;;;;;;5047755;28;20192;-82
2021/12/06 04:10:48;;;;;;;12.48;8.98;;;2.20;99.90;;;;;;5046524;28;20173;-82
2021/12/06 04:13:14;;;;;;;16.67;9.10;;;2.20;99.90;;;;;;5028978;28;20201;-83
2021/12/06 04:15:44;;;;;;;15.70;9.87;;;2.00;99.90;;;;;;5031290;28;20435;-83
2021/12/06 04:18:09;;;;;;;22.55;14.18;;;2.00;99.90;;;;;;5048238;28;20424;-82
2021/12/06 04:20:35;;;;;;;21.43;14.70;;;2.10;99.90;;;;;;5031173;28;20268;-83
2021/12/06 04:23:01;;;;;;;28.30;16.40;;;3.60;99.90;;;;;;5052929;28;20197;-84
2021/12/06 04:25:27;;;;;;;20.85;13.18;;;2.20;99.90;;;;;;5053426;28;20209;-83
2021/12/06 04:27:59;;;;;;;19.67;10.70;;;2.30;99.90;;;;;;5050333;28;20193;-83
2021/12/06 04:30:26;;;;;;;18.88;11.98;;;2.30;99.90;;;;;;5030828;28;20184;-84
2021/12/06 04:32:53;;;;;;;18.98;11.30;;;2.30;99.90;;;;;;5035120;28;20227;-82
2021/12/06 04:35:19;;;;;;;21.83;13.70;;;2.30;99.90;;;;;;5049313;28;20188;-83
2021/12/06 04:37:45;;;;;;;25.10;14.70;;;2.30;99.90;;;;;;5031809;28;20641;-81
2021/12/06 04:40:12;;;;;;;21.07;13.00;;;2.30;99.90;;;;;;5035482;28;20510;-83
2021/12/06 04:42:38;;;;;;;24.00;14.60;;;2.30;99.90;;;;;;5050485;28;20223;-84
2021/12/06 04:45:05;;;;;;;29.48;14.80;;;2.30;99.90;;;;;;5049695;28;20185;-81
2021/12/06 04:47:31;;;;;;;29.10;17.75;;;2.30;99.90;;;;;;5048454;28;20843;-81
2021/12/06 04:49:56;;;;;;;24.50;15.47;;;2.30;99.90;;;;;;5047463;28;20177;-82
2021/12/06 04:52:22;;;;;;;30.33;19.07;;;2.30;99.90;;;;;;5047606;28;20463;-81
2021/12/06 04:54:54;;;;;;;26.63;18.10;;;2.30;99.90;;;;;;5048104;28;20184;-81
2021/12/06 04:57:29;;;;;;;35.47;20.90;;;2.30;99.90;;;;;;5035003;28;20177;-81
2021/12/06 05:00:05;;;;;;;30.55;19.58;;;2.10;99.90;;;;;;5031310;28;20726;-81
2021/12/06 05:02:36;;;;;;;34.83;20.42;;;2.00;99.90;;;;;;5049529;28;20204;-81
2021/12/06 05:05:11;;;;;;;27.92;16.50;;;2.00;99.90;;;;;;5048920;28;21162;-81
2021/12/06 05:07:42;;;;;;;31.20;17.92;;;2.10;99.90;;;;;;5025238;28;20174;-81
2021/12/06 05:10:10;;;;;;;33.25;18.38;;;2.10;99.90;;;;;;5049697;28;20193;-82
2021/12/06 05:12:36;;;;;;;35.17;19.80;;;2.10;99.90;;;;;;5031448;28;20212;-84
2021/12/06 05:15:03;;;;;;;36.42;21.75;;;2.00;99.90;;;;;;5050082;28;20589;-82
2021/12/06 05:17:29;;;;;;;38.88;21.02;;;1.90;99.90;;;;;;5045029;28;20248;-86
2021/12/06 05:19:55;;;;;;;40.70;21.40;;;1.80;99.90;;;;;;5046981;28;20314;-81
2021/12/06 05:22:21;;;;;;;48.83;25.27;;;1.80;99.90;;;;;;5045861;28;20864;-82
2021/12/06 05:24:46;;;;;;;48.30;24.70;;;1.80;99.90;;;;;;5049229;28;20193;-85
2021/12/06 05:27:12;;;;;;;45.83;22.90;;;1.90;99.90;;;;;;5030290;28;20761;-84
2021/12/06 05:29:38;;;;;;;38.60;22.47;;;2.00;99.90;;;;;;5048802;28;20177;-81
2021/12/06 05:32:04;;;;;;;35.60;22.10;;;2.10;99.90;;;;;;5050174;28;20213;-82
2021/12/06 05:34:39;;;;;;;45.50;21.85;;;2.20;99.90;;;;;;5048096;28;20466;-83
2021/12/06 05:37:13;;;;;;;42.47;23.92;;;2.20;99.90;;;;;;5026567;28;20184;-81
2021/12/06 05:39:39;;;;;;;35.63;19.80;;;2.30;99.90;;;;;;5046881;28;20493;-84
2021/12/06 05:42:11;;;;;;;36.83;22.70;;;2.30;99.90;;;;;;5032295;28;20217;-82
2021/12/06 05:44:38;;;;;;;31.65;19.52;;;2.40;99.90;;;;;;5032230;28;20185;-81
2021/12/06 05:47:04;;;;;;;43.90;23.23;;;2.50;99.90;;;;;;5045661;28;20177;-81
2021/12/06 05:49:30;;;;;;;39.33;21.20;;;2.50;99.90;;;;;;5024226;28;20196;-82
2021/12/06 05:51:56;;;;;;;36.38;20.40;;;2.60;99.90;;;;;;5022594;28;20529;-81
2021/12/06 05:54:23;;;;;;;40.67;23.67;;;2.60;99.90;;;;;;5046896;28;20193;-82
2021/12/06 05:56:50;;;;;;;35.80;21.30;;;2.60;99.90;;;;;;5033889;28;20212;-82
2021/12/06 05:59:16;;;;;;;36.33;20.88;;;2.60;99.90;;;;;;5053511;28;20185;-82
2021/12/06 06:01:42;;;;;;;36.53;19.37;;;2.70;99.90;;;;;;5033811;28;20201;-82
2021/12/06 06:04:07;;;;;;;43.33;22.10;;;2.70;99.90;;;;;;5031176;28;20526;-82
2021/12/06 06:06:35;;;;;;;29.67;19.03;;;2.80;99.90;;;;;;5042867;28;20978;-82
2021/12/06 06:09:03;;;;;;;33.63;20.00;;;2.90;99.90;;;;;;5028634;28;20181;-82
2021/12/06 06:11:29;;;;;;;36.38;20.90;;;2.80;99.90;;;;;;5034250;28;20262;-82
2021/12/06 06:13:55;;;;;;;29.80;19.70;;;2.50;99.90;;;;;;5027680;28;20670;-82
2021/12/06 06:16:22;;;;;;;34.17;20.00;;;2.50;99.90;;;;;;5027262;28;22277;-81
2021/12/06 06:18:50;;;;;;;35.40;20.45;;;2.40;99.90;;;;;;5052603;28;20177;-82
2021/12/06 06:21:18;;;;;;;33.83;20.08;;;2.50;99.90;;;;;;5047269;28;20197;-82
2021/12/06 06:23:44;;;;;;;31.75;20.20;;;2.60;99.90;;;;;;5049991;28;20193;-82
2021/12/06 06:26:09;;;;;;;34.23;20.43;;;2.60;99.90;;;;;;5049352;28;20199;-81
2021/12/06 06:28:35;;;;;;;33.50;20.10;;;2.70;99.90;;;;;;5031815;28;20625;-82
2021/12/06 06:31:01;;;;;;;36.97;19.50;;;2.70;99.90;;;;;;5026444;28;20254;-82
2021/12/06 06:33:27;;;;;;;38.40;21.03;;;2.80;99.90;;;;;;5044373;28;20193;-82
2021/12/06 06:35:53;;;;;;;38.00;22.30;;;2.70;99.90;;;;;;5046818;28;20439;-83
2021/12/06 06:38:19;;;;;;;47.23;25.27;;;2.50;99.90;;;;;;5028607;28;20916;-82
2021/12/06 06:40:45;;;;;;;44.58;22.10;;;2.30;99.90;;;;;;5024485;28;20192;-83
2021/12/06 06:43:11;;;;;;;43.80;23.97;;;2.40;99.90;;;;;;5050457;28;20185;-82
2021/12/06 06:45:36;;;;;;;43.83;22.30;;;2.30;99.90;;;;;;5045463;28;20526;-82
2021/12/06 06:48:03;;;;;;;36.03;20.40;;;2.40;99.90;;;;;;5043636;28;20197;-83
2021/12/06 06:50:29;;;;;;;46.30;22.70;;;2.50;99.90;;;;;;5043900;28;20968;-83
2021/12/06 06:52:55;;;;;;;41.80;22.43;;;2.60;99.90;;;;;;5049914;28;20502;-83
2021/12/06 06:55:21;;;;;;;56.17;29.70;;;2.60;99.90;;;;;;5041463;28;20435;-83
2021/12/06 06:57:48;;;;;;;59.00;25.75;;;2.60;99.90;;;;;;5039686;28;20192;-84
2021/12/06 07:00:17;;;;;;;39.17;23.88;;;2.70;99.90;;;;;;5019377;28;20177;-83
2021/12/06 07:02:43;;;;;;;52.03;26.30;;;2.80;99.90;;;;;;5019345;28;21593;-83
2021/12/06 07:05:10;;;;;;;38.83;21.58;;;2.80;99.90;;;;;;5029145;28;20209;-83
2021/12/06 07:07:37;;;;;;;40.17;24.10;;;2.80;99.90;;;;;;5045882;28;20181;-83
2021/12/06 07:10:04;;;;;;;38.47;21.95;;;2.60;99.90;;;;;;5042467;28;20240;-83
2021/12/06 07:12:30;;;;;;;41.45;21.27;;;2.40;99.90;;;;;;5046115;28;20205;-83
2021/12/06 07:14:56;;;;;;;41.28;22.15;;;2.30;99.90;;;;;;5021105;28;20446;-84
2021/12/06 07:17:22;;;;;;;75.87;34.40;;;2.30;99.90;;;;;;5042049;28;20215;-83
2021/12/06 07:19:47;;;;;;;271.40;111.37;;;2.30;99.90;;;;;;5039440;28;20264;-83
2021/12/06 07:22:13;;;;;;;67.23;30.27;;;2.40;99.90;;;;;;5038270;28;20467;-84
2021/12/06 07:24:39;;;;;;;87.50;38.27;;;2.50;99.90;;;;;;5039446;28;20595;-84
2021/12/06 07:27:06;;;;;;;86.50;38.20;;;2.60;99.90;;;;;;5043418;28;20181;-84
2021/12/06 07:29:33;;;;;;;48.33;25.17;;;2.60;99.90;;;;;;5038223;28;21348;-83
2021/12/06 07:32:00;;;;;;;49.95;25.60;;;2.40;99.90;;;;;;5036117;28;20693;-82
2021/12/06 07:34:26;;;;;;;99.60;49.45;;;2.40;99.90;;;;;;5020312;28;20174;-83
2021/12/06 07:36:52;;;;;;;111.33;56.63;;;2.50;99.90;;;;;;5017974;28;20188;-83
2021/12/06 07:39:18;;;;;;;64.67;37.20;;;2.60;99.90;;;;;;5018002;28;20177;-84
2021/12/06 07:41:43;;;;;;;51.00;29.30;;;2.60;99.90;;;;;;5058180;23;20491;-79
2021/12/06 07:44:09;;;;;;;43.43;22.90;;;2.70;99.90;;;;;;5033482;28;20447;-79
2021/12/06 07:46:35;;;;;;;47.10;23.00;;;2.80;99.90;;;;;;5026361;28;20460;-79
2021/12/06 07:49:00;;;;;;;44.50;21.97;;;2.80;99.90;;;;;;5033419;28;20592;-80
2021/12/06 07:51:28;;;;;;;44.63;23.47;;;2.60;99.90;;;;;;5026890;28;20239;-81
2021/12/06 07:53:56;;;;;;;47.60;22.90;;;2.60;99.90;;;;;;5016692;28;20224;-82
2021/12/06 07:56:22;;;;;;;38.53;19.35;;;2.70;99.90;;;;;;5001075;28;20178;-82
2021/12/06 07:58:48;;;;;;;32.63;17.33;;;2.80;99.90;;;;;;5022418;28;20178;-82
2021/12/06 08:01:14;;;;;;;37.10;20.15;;;2.90;99.90;;;;;;5022428;28;20493;-82
2021/12/06 08:03:41;;;;;;;40.40;21.48;;;2.90;99.90;;;;;;5015169;28;20182;-82
2021/12/06 08:06:08;;;;;;;38.70;20.13;;;3.10;99.90;;;;;;5007761;28;20185;-83
2021/12/06 08:08:35;;;;;;;37.80;18.52;;;3.10;99.90;;;;;;5025703;28;20200;-82
2021/12/06 08:11:05;;;;;;;39.65;21.60;;;3.30;99.90;;;;;;5003003;28;20182;-81
2021/12/06 08:13:33;;;;;;;37.33;20.05;;;3.30;99.90;;;;;;5017593;28;20201;-82
2021/12/06 08:16:02;;;;;;;38.17;21.95;;;3.30;99.90;;;;;;5019021;28;20201;-81
2021/12/06 08:18:28;;;;;;;31.83;18.15;;;3.40;99.90;;;;;;5007728;28;20236;-81
2021/12/06 08:20:55;;;;;;;31.60;17.83;;;3.60;99.90;;;;;;5023271;28;20181;-82
2021/12/06 08:23:20;;;;;;;39.10;19.05;;;3.70;99.90;;;;;;5022002;28;20608;-83
2021/12/06 08:25:48;;;;;;;35.10;19.33;;;3.80;99.90;;;;;;5025876;28;20166;-82
2021/12/06 08:28:15;;;;;;;32.17;18.33;;;3.90;99.90;;;;;;5019677;28;20271;-82
2021/12/06 08:30:41;;;;;;;32.38;16.55;;;3.90;99.90;;;;;;5016732;28;20178;-83
2021/12/06 08:33:07;;;;;;;34.33;18.17;;;4.00;99.90;;;;;;5020201;28;22661;-83
2021/12/06 08:35:38;;;;;;;39.30;17.93;;;4.00;99.90;;;;;;5024018;28;20606;-81
2021/12/06 08:38:06;;;;;;;34.35;17.75;;;4.10;99.90;;;;;;5024190;28;20440;-81
2021/12/06 08:40:32;;;;;;;37.10;19.20;;;4.30;99.90;;;;;;5024478;28;20173;-82
2021/12/06 08:42:58;;;;;;;31.63;16.75;;;4.40;99.90;;;;;;5024871;28;20217;-81
2021/12/06 08:45:27;;;;;;;32.63;18.10;;;4.50;99.90;;;;;;5019739;28;20186;-82
2021/12/06 08:47:53;;;;;;;36.85;17.50;;;4.70;99.90;;;;;;4998578;28;20731;-82
2021/12/06 08:50:22;;;;;;;32.13;17.10;;;4.90;99.90;;;;;;5017591;28;20178;-81
2021/12/06 08:52:49;;;;;;;33.92;17.50;;;5.10;99.90;;;;;;5019000;28;20690;-82
2021/12/06 08:55:16;;;;;;;38.55;21.60;;;5.20;99.90;;;;;;5020240;28;20539;-82
2021/12/06 08:57:42;;;;;;;39.72;19.83;;;5.30;99.90;;;;;;4995343;28;20184;-82
2021/12/06 09:00:17;;;;;;;32.30;16.40;;;5.40;99.90;;;;;;5021566;28;20180;-83
2021/12/06 09:02:43;;;;;;;29.40;17.90;;;5.40;99.90;;;;;;5020970;28;20213;-82
2021/12/06 09:05:10;;;;;;;38.13;19.63;;;5.50;99.90;;;;;;5021315;28;20182;-83
2021/12/06 09:07:36;;;;;;;34.47;17.55;;;5.50;99.90;;;;;;5020418;28;20677;-83
2021/12/06 09:10:06;;;;;;;35.05;18.58;;;5.40;99.90;;;;;;4997630;28;20336;-82
2021/12/06 09:12:32;;;;;;;43.72;19.40;;;5.40;99.90;;;;;;5019877;28;20289;-83
2021/12/06 09:15:02;;;;;;;34.83;18.43;;;5.40;99.90;;;;;;5022337;28;20277;-83
2021/12/06 09:17:28;;;;;;;46.22;20.20;;;5.30;99.90;;;;;;5017406;28;20549;-82
2021/12/06 09:19:54;;;;;;;44.67;20.07;;;5.50;99.90;;;;;;5010281;28;20178;-83
2021/12/06 09:22:20;;;;;;;43.87;19.00;;;5.50;99.90;;;;;;5013427;28;20208;-83
2021/12/06 09:24:47;;;;;;;48.38;21.25;;;5.40;99.90;;;;;;5032984;28;20443;-82
2021/12/06 09:27:13;;;;;;;44.58;22.25;;;5.20;99.90;;;;;;5030443;28;20216;-83
2021/12/06 09:29:39;;;;;;;46.75;21.58;;;5.10;99.90;;;;;;5030190;28;20185;-82
2021/12/06 09:32:08;;;;;;;44.13;20.30;;;5.10;99.90;;;;;;5014985;28;20202;-83
2021/12/06 09:34:37;;;;;;;49.05;18.17;;;5.00;99.90;;;;;;5017152;28;20273;-82
2021/12/06 09:37:03;;;;;;;47.70;21.23;;;4.90;99.90;;;;;;5030619;28;20176;-84
2021/12/06 09:39:30;;;;;;;42.80;17.48;;;5.00;99.90;;;;;;5012076;28;20182;-82
2021/12/06 09:41:55;;;;;;;40.42;18.83;;;5.00;99.90;;;;;;5015024;28;20834;-82
2021/12/06 09:44:22;;;;;;;40.90;18.87;;;4.90;99.90;;;;;;5006571;28;20186;-82
2021/12/06 09:46:48;;;;;;;43.75;21.35;;;4.70;99.90;;;;;;5027301;28;20182;-82
2021/12/06 09:49:19;;;;;;;41.30;19.37;;;4.70;99.90;;;;;;4999915;28;20181;-83
2021/12/06 09:51:51;;;;;;;38.88;20.83;;;4.80;99.90;;;;;;5003344;28;20448;-81
2021/12/06 09:54:18;;;;;;;45.22;19.50;;;4.90;99.90;;;;;;5024471;28;20205;-82
2021/12/06 09:56:45;;;;;;;41.50;18.58;;;5.00;99.90;;;;;;5024224;28;20185;-83
2021/12/06 09:59:14;;;;;;;29.25;16.55;;;5.10;99.90;;;;;;5024853;28;20194;-82
2021/12/06 10:01:45;;;;;;;29.00;14.43;;;5.60;99.90;;;;;;4999870;28;20705;-83
2021/12/06 10:04:14;;;;;;;33.58;16.67;;;5.60;99.90;;;;;;5018838;28;20197;-82
2021/12/06 10:06:41;;;;;;;26.63;13.60;;;5.60;99.90;;;;;;5025742;28;20178;-82
2021/12/06 10:09:09;;;;;;;28.35;14.48;;;6.00;99.90;;;;;;5025065;28;20193;-81
2021/12/06 10:11:37;;;;;;;29.02;15.85;;;6.30;99.90;;;;;;5019489;28;20720;-83
2021/12/06 10:14:04;;;;;;;28.15;14.27;;;6.20;99.90;;;;;;5019630;28;20259;-83
2021/12/06 10:16:30;;;;;;;24.48;13.20;;;6.60;99.90;;;;;;5012307;28;20627;-82
2021/12/06 10:18:56;;;;;;;26.33;13.10;;;6.70;99.90;;;;;;5016213;28;20181;-81
2021/12/06 10:21:24;;;;;;;22.50;13.17;;;6.00;99.90;;;;;;5005940;28;20604;-83
2021/12/06 10:23:50;;;;;;;20.60;11.75;;;6.00;99.90;;;;;;5022161;28;20166;-82
2021/12/06 10:26:20;;;;;;;24.33;13.55;;;6.10;99.90;;;;;;5025673;28;20650;-82
2021/12/06 10:28:46;;;;;;;33.20;17.73;;;6.20;99.90;;;;;;5020004;28;20534;-82
2021/12/06 10:31:13;;;;;;;33.97;18.47;;;6.40;99.90;;;;;;5015011;28;20318;-82
2021/12/06 10:33:46;;;;;;;41.60;21.30;;;6.40;99.90;;;;;;4992371;28;20614;-82
2021/12/06 10:36:15;;;;;;;28.42;14.77;;;6.60;99.90;;;;;;4996823;28;21574;-82
2021/12/06 10:38:47;;;;;;;26.33;13.60;;;6.60;99.90;;;;;;5019751;28;20185;-82
2021/12/06 10:41:18;;;;;;;24.52;13.02;;;7.00;99.90;;;;;;5016056;28;20176;-83
2021/12/06 10:43:53;;;;;;;23.55;14.55;;;7.00;99.90;;;;;;5018128;28;20213;-83
2021/12/06 10:46:19;;;;;;;30.63;17.30;;;6.60;99.90;;;;;;5019871;28;20193;-82
2021/12/06 10:48:47;;;;;;;33.08;16.77;;;6.70;99.90;;;;;;5024829;28;20220;-82
2021/12/06 10:51:19;;;;;;;28.52;14.65;;;6.70;99.90;;;;;;5023869;28;20776;-82
2021/12/06 10:53:59;;;;;;;35.53;17.48;;;6.70;99.90;;;;;;5027792;28;20300;-83
2021/12/06 10:56:36;;;;;;;32.55;16.58;;;6.60;99.90;;;;;;5007809;28;20182;-82
2021/12/06 10:59:05;;;;;;;23.67;13.32;;;6.70;99.90;;;;;;5010778;28;20604;-83
2021/12/06 11:01:32;;;;;;;25.95;14.75;;;6.10;99.90;;;;;;5024433;28;20191;-82
2021/12/06 11:04:00;;;;;;;24.83;12.38;;;6.10;99.90;;;;;;5023444;28;20209;-82
2021/12/06 11:06:48;;;;;;;27.45;14.57;;;5.90;99.90;;;;;;5025782;28;20747;-83
2021/12/06 11:09:20;;;;;;;27.15;14.23;;;6.00;99.90;;;;;;5007641;28;20200;-83
2021/12/06 11:11:49;;;;;;;25.73;13.48;;;5.90;99.90;;;;;;5006511;28;20236;-82
2021/12/06 11:14:22;;;;;;;38.95;19.70;;;5.60;99.90;;;;;;5026084;28;20304;-82
2021/12/06 11:16:52;;;;;;;26.73;15.32;;;5.70;99.90;;;;;;5008324;28;20249;-82
2021/12/06 11:19:21;;;;;;;29.80;15.98;;;5.80;99.90;;;;;;5010198;28;20178;-82
2021/12/06 11:21:50;;;;;;;25.35;13.00;;;6.00;99.90;;;;;;5025498;28;20809;-81
2021/12/06 11:24:24;;;;;;;27.45;12.45;;;5.80;99.90;;;;;;5022477;28;20289;-82
2021/12/06 11:27:08;;;;;;;19.83;11.80;;;5.80;99.90;;;;;;5025211;28;20185;-82
2021/12/06 11:29:47;;;;;;;21.48;12.50;;;5.90;99.90;;;;;;5021933;28;20220;-82
2021/12/06 11:32:18;;;;;;;27.17;13.57;;;5.90;99.90;;;;;;5027767;28;20208;-81
2021/12/06 11:34:50;;;;;;;29.70;15.55;;;5.70;99.90;;;;;;5024790;28;20185;-81
2021/12/06 11:37:21;;;;;;;23.67;12.93;;;5.50;99.90;;;;;;5006793;28;20177;-82
2021/12/06 11:40:24;;;;;;;23.98;13.88;;;5.40;99.90;;;;;;5005498;28;20185;-81
2021/12/06 11:42:56;;;;;;;33.28;16.40;;;5.30;99.90;;;;;;5025382;28;20261;-82
2021/12/06 11:45:34;;;;;;;34.05;18.35;;;5.30;99.90;;;;;;5005864;28;20654;-81
2021/12/06 11:48:01;;;;;;;31.13;14.65;;;5.40;99.90;;;;;;5021710;28;20189;-82
2021/12/06 11:50:28;;;;;;;38.17;15.85;;;5.50;99.90;;;;;;5027394;28;20194;-82
2021/12/06 11:52:53;;;;;;;30.55;15.10;;;5.60;99.90;;;;;;5007551;28;20205;-81
2021/12/06 11:55:19;;;;;;;28.17;13.53;;;5.90;99.90;;;;;;5015533;28;20546;-84
2021/12/06 11:57:53;;;;;;;32.00;13.73;;;5.80;99.90;;;;;;5025279;28;20627;-82
2021/12/06 12:00:21;;;;;;;26.42;14.25;;;5.80;99.90;;;;;;5028463;28;20184;-84
2021/12/06 12:03:08;;;;;;;24.77;13.07;;;5.80;99.90;;;;;;5009171;28;20202;-83
2021/12/06 12:05:36;;;;;;;27.55;13.80;;;5.90;99.90;;;;;;5013772;28;20190;-83
2021/12/06 12:08:17;;;;;;;36.03;14.02;;;5.70;99.90;;;;;;5031204;28;20181;-84
2021/12/06 12:10:51;;;;;;;43.17;16.13;;;5.60;99.90;;;;;;5000471;28;20211;-83
2021/12/06 12:13:34;;;;;;;35.20;17.10;;;5.50;99.90;;;;;;5018775;28;20220;-83
2021/12/06 12:16:09;;;;;;;54.17;18.48;;;5.60;99.90;;;;;;5025035;28;20197;-84
2021/12/06 12:18:39;;;;;;;32.03;14.90;;;5.80;99.90;;;;;;5009093;28;20181;-81
2021/12/06 12:21:06;;;;;;;30.00;14.15;;;5.80;99.90;;;;;;5003614;28;20178;-83
2021/12/06 12:23:33;;;;;;;27.95;13.70;;;5.80;99.90;;;;;;5009273;28;20208;-83
2021/12/06 12:26:08;;;;;;;26.55;12.38;;;5.90;99.90;;;;;;5014913;28;20181;-83
2021/12/06 12:28:39;;;;;;;25.92;12.18;;;6.00;99.90;;;;;;5015318;28;20181;-82
2021/12/06 12:31:11;;;;;;;23.45;12.75;;;6.20;99.90;;;;;;5022299;28;20193;-82
2021/12/06 12:33:38;;;;;;;27.35;13.40;;;6.40;99.90;;;;;;4996935;28;20303;-83
2021/12/06 12:36:13;;;;;;;21.90;12.55;;;6.50;99.90;;;;;;5000269;28;20264;-82
2021/12/06 12:38:42;;;;;;;25.42;12.80;;;6.70;99.90;;;;;;5015652;28;20189;-82
2021/12/06 12:41:16;;;;;;;27.02;12.40;;;6.80;99.90;;;;;;5024766;28;20197;-85
2021/12/06 12:43:59;;;;;;;22.20;12.25;;;6.80;99.90;;;;;;5027719;28;20408;-83
2021/12/06 12:46:38;;;;;;;25.83;12.85;;;6.70;99.90;;;;;;5027113;28;20204;-82
2021/12/06 12:49:10;;;;;;;23.25;13.27;;;6.60;99.90;;;;;;5024923;28;20480;-83
2021/12/06 12:51:43;;;;;;;22.98;11.30;;;6.30;99.90;;;;;;5004058;28;20220;-82
2021/12/06 12:54:19;;;;;;;17.65;10.48;;;6.30;99.90;;;;;;5008500;28;20209;-83
2021/12/06 12:57:02;;;;;;;23.27;13.30;;;6.40;99.90;;;;;;5019078;28;20177;-82
2021/12/06 12:59:34;;;;;;;23.73;11.88;;;6.40;99.90;;;;;;5022668;28;20182;-83
2021/12/06 13:02:20;;;;;;;21.17;11.07;;;6.20;99.90;;;;;;5018726;28;20201;-81